createdAt,value
2022-07-30T00:00:11.266Z,4.57
2022-07-30T00:03:16.278Z,4.38
2022-07-30T00:06:21.745Z,4.28
2022-07-30T00:09:27.027Z,5.03
2022-07-30T00:12:33.636Z,4.78
2022-07-30T00:15:39.091Z,4.63
2022-07-30T00:18:44.305Z,4.80
2022-07-30T00:21:49.860Z,5.35
2022-07-30T00:24:55.997Z,4.82
2022-07-30T00:28:02.918Z,5.07
2022-07-30T00:31:08.119Z,5.47
2022-07-30T00:34:13.616Z,5.38
2022-07-30T00:37:19.248Z,4.95
2022-07-30T00:40:24.673Z,6.18
2022-07-30T00:43:31.587Z,4.85
2022-07-30T00:46:36.975Z,6.15
2022-07-30T00:49:44.363Z,5.63
2022-07-30T00:52:49.765Z,5.47
2022-07-30T00:55:54.773Z,5.40
2022-07-30T00:59:01.627Z,6.18
2022-07-30T01:02:07.316Z,6.15
2022-07-30T01:05:13.210Z,5.72
2022-07-30T01:08:18.787Z,7.13
2022-07-30T01:11:29.612Z,6.10
2022-07-30T01:14:37.295Z,6.63
2022-07-30T01:17:42.497Z,6.68
2022-07-30T01:20:58.323Z,6.93
2022-07-30T01:24:17.377Z,6.53
2022-07-30T01:27:26.204Z,8.02
2022-07-30T01:30:35.511Z,7.90
2022-07-30T01:33:45.975Z,8.00
2022-07-30T01:36:52.012Z,8.20
2022-07-30T01:39:58.260Z,8.00
2022-07-30T01:43:08.089Z,8.13
2022-07-30T01:46:15.927Z,10.35
2022-07-30T01:49:24.048Z,9.65
2022-07-30T01:52:31.615Z,9.35
2022-07-30T01:55:41.122Z,10.88
2022-07-30T01:58:50.576Z,10.10
2022-07-30T02:02:01.552Z,10.40
2022-07-30T02:05:07.451Z,10.57
2022-07-30T02:08:17.860Z,12.35
2022-07-30T02:11:44.530Z,11.05
2022-07-30T02:14:57.383Z,10.00
2022-07-30T02:18:07.401Z,10.48
2022-07-30T02:21:13.901Z,9.05
2022-07-30T02:24:24.989Z,12.00
2022-07-30T02:27:34.950Z,10.98
2022-07-30T02:30:49.391Z,10.55
2022-07-30T02:33:59.344Z,12.90
2022-07-30T02:37:07.033Z,12.52
2022-07-30T02:40:18.889Z,13.18
2022-07-30T02:43:26.085Z,12.82
2022-07-30T02:46:33.400Z,15.85
2022-07-30T02:49:59.570Z,14.52
2022-07-30T02:53:09.920Z,15.10
2022-07-30T02:56:17.394Z,16.08
2022-07-30T02:59:24.893Z,14.55
2022-07-30T03:02:32.838Z,15.98
2022-07-30T03:05:39.571Z,14.95
2022-07-30T03:08:46.114Z,14.90
2022-07-30T03:11:53.473Z,16.02
2022-07-30T03:14:59.402Z,15.25
2022-07-30T03:18:07.842Z,15.60
2022-07-30T03:21:15.936Z,15.38
2022-07-30T03:24:25.377Z,16.95
2022-07-30T03:27:32.338Z,15.10
2022-07-30T03:30:38.386Z,15.90
2022-07-30T03:33:46.156Z,14.95
2022-07-30T03:36:55.487Z,13.45
2022-07-30T03:40:01.834Z,14.70
2022-07-30T03:43:18.552Z,15.20
2022-07-30T03:46:37.439Z,16.85
2022-07-30T03:49:44.522Z,16.48
2022-07-30T03:52:50.592Z,17.73
2022-07-30T03:55:56.695Z,18.13
2022-07-30T03:59:21.091Z,17.92
2022-07-30T04:02:26.913Z,18.42
2022-07-30T04:05:56.729Z,16.75
2022-07-30T04:09:02.449Z,18.60
2022-07-30T04:12:07.966Z,19.85
2022-07-30T04:16:05.704Z,17.35
2022-07-30T04:18:45.271Z,16.50
2022-07-30T04:21:55.029Z,17.48
2022-07-30T04:25:02.550Z,16.73
2022-07-30T04:28:08.281Z,16.55
2022-07-30T04:31:13.671Z,15.48
2022-07-30T04:34:19.603Z,21.58
2022-07-30T04:37:27.992Z,18.33
2022-07-30T04:40:33.549Z,15.77
2022-07-30T04:43:39.189Z,15.88
2022-07-30T04:46:44.816Z,15.38
2022-07-30T04:49:51.819Z,15.00
2022-07-30T04:52:58.547Z,16.17
2022-07-30T04:56:12.113Z,15.90
2022-07-30T04:59:19.219Z,14.05
2022-07-30T05:02:28.374Z,13.63
2022-07-30T05:05:34.799Z,13.10
2022-07-30T05:08:42.713Z,14.18
2022-07-30T05:11:53.253Z,13.55
2022-07-30T05:14:58.528Z,13.15
2022-07-30T05:18:03.805Z,13.13
2022-07-30T05:21:16.894Z,10.77
2022-07-30T05:24:26.886Z,10.60
2022-07-30T05:27:35.068Z,10.05
2022-07-30T05:30:46.039Z,10.10
2022-07-30T05:33:55.394Z,9.25
2022-07-30T05:37:04.817Z,8.82
2022-07-30T05:40:13.355Z,7.55
2022-07-30T05:43:55.833Z,7.70
2022-07-30T05:47:02.289Z,7.13
2022-07-30T05:50:08.359Z,6.93
2022-07-30T05:53:14.470Z,5.78
2022-07-30T05:56:40.931Z,6.10
2022-07-30T05:59:52.302Z,5.55
2022-07-30T06:03:21.984Z,4.88
2022-07-30T06:07:05.888Z,4.55
2022-07-30T06:10:12.420Z,4.43
2022-07-30T06:13:19.006Z,4.07
2022-07-30T06:16:24.617Z,3.80
2022-07-30T06:19:30.042Z,3.92
2022-07-30T06:22:35.345Z,3.90
2022-07-30T06:25:46.127Z,3.00
2022-07-30T06:28:52.525Z,3.67
2022-07-30T06:32:05.036Z,3.05
2022-07-30T06:35:10.611Z,3.28
2022-07-30T06:38:16.050Z,3.10
2022-07-30T06:41:32.405Z,3.35
2022-07-30T06:44:39.674Z,3.35
2022-07-30T06:47:59.658Z,2.83
2022-07-30T06:51:06.676Z,3.22
2022-07-30T06:54:13.113Z,3.20
2022-07-30T06:57:50.912Z,3.25
2022-07-30T07:01:26.615Z,2.97
2022-07-30T07:04:33.258Z,3.03
2022-07-30T07:07:44.431Z,2.75
2022-07-30T07:10:59.220Z,2.30
2022-07-30T07:14:08.854Z,3.47
2022-07-30T07:17:16.412Z,1.80
2022-07-30T07:20:46.591Z,1.90
2022-07-30T07:23:52.037Z,2.15
2022-07-30T07:27:16.669Z,1.58
2022-07-30T07:30:25.202Z,1.75
2022-07-30T07:33:32.206Z,1.80
2022-07-30T07:36:37.908Z,1.58
2022-07-30T07:39:43.323Z,1.92
2022-07-30T07:42:48.921Z,1.92
2022-07-30T07:45:57.108Z,1.95
2022-07-30T07:49:06.377Z,2.13
2022-07-30T07:52:23.618Z,2.75
2022-07-30T07:55:31.695Z,2.03
2022-07-30T07:58:38.802Z,1.83
2022-07-30T08:01:47.567Z,2.28
2022-07-30T08:05:06.877Z,1.83
2022-07-30T08:08:37.497Z,1.33
2022-07-30T08:12:18.171Z,1.83
2022-07-30T08:15:38.523Z,1.60
2022-07-30T08:19:21.970Z,2.00
2022-07-30T08:22:46.950Z,1.80
2022-07-30T08:25:53.656Z,1.58
2022-07-30T08:28:59.076Z,1.63
2022-07-30T08:32:04.525Z,1.58
2022-07-30T08:35:13.478Z,1.38
2022-07-30T08:38:20.581Z,2.58
2022-07-30T08:41:27.107Z,1.83
2022-07-30T08:44:34.209Z,2.00
2022-07-30T08:47:42.139Z,1.73
2022-07-30T08:50:51.343Z,1.55
2022-07-30T08:54:20.220Z,1.80
2022-07-30T08:57:26.239Z,1.75
2022-07-30T09:00:31.985Z,1.40
2022-07-30T09:03:44.138Z,1.48
2022-07-30T09:06:50.298Z,1.77
2022-07-30T09:09:57.370Z,1.48
2022-07-30T09:13:04.094Z,2.10
2022-07-30T09:16:20.519Z,1.77
2022-07-30T09:19:26.788Z,1.60
2022-07-30T09:22:43.693Z,1.50
2022-07-30T09:26:29.506Z,1.40
2022-07-30T09:29:59.337Z,1.25
2022-07-30T09:33:33.751Z,1.67
2022-07-30T09:37:02.095Z,1.92
2022-07-30T09:40:33.627Z,1.42
2022-07-30T09:44:03.908Z,1.40
2022-07-30T09:47:31.567Z,1.20
2022-07-30T09:50:37.371Z,1.30
2022-07-30T09:53:57.622Z,1.52
2022-07-30T10:00:37.677Z,1.50
2022-07-30T10:04:24.979Z,1.52
2022-07-30T10:07:43.627Z,1.35
2022-07-30T10:10:50.710Z,1.42
2022-07-30T10:13:59.116Z,1.60
2022-07-30T10:17:06.845Z,1.63
2022-07-30T10:20:15.064Z,1.45
2022-07-30T10:23:44.221Z,1.45
2022-07-30T10:27:10.175Z,1.10
2022-07-30T10:30:27.957Z,1.20
2022-07-30T10:33:40.009Z,1.10
2022-07-30T10:36:49.601Z,1.10
2022-07-30T10:39:58.412Z,1.40
2022-07-30T10:43:24.310Z,1.63
2022-07-30T10:46:50.825Z,1.40
2022-07-30T10:50:12.035Z,1.13
2022-07-30T10:53:39.611Z,1.40
2022-07-30T10:57:04.120Z,1.48
2022-07-30T11:00:15.172Z,1.50
2022-07-30T11:03:23.532Z,1.17
2022-07-30T11:06:37.738Z,1.20
2022-07-30T11:09:43.694Z,1.00
2022-07-30T11:12:56.505Z,1.20
2022-07-30T11:16:02.275Z,1.40
2022-07-30T11:19:56.584Z,1.50
2022-07-30T11:22:44.804Z,1.60
2022-07-30T11:25:54.492Z,3.45
2022-07-30T11:29:00.163Z,1.40
2022-07-30T11:32:25.359Z,1.38
2022-07-30T11:35:35.190Z,1.33
2022-07-30T11:39:03.671Z,1.83
2022-07-30T11:42:25.617Z,1.50
2022-07-30T11:45:30.865Z,1.52
2022-07-30T11:48:38.029Z,1.33
2022-07-30T11:51:47.235Z,1.35
2022-07-30T11:54:55.457Z,1.52
2022-07-30T11:58:03.494Z,1.60
2022-07-30T12:01:14.369Z,1.70
2022-07-30T12:04:20.656Z,1.55
2022-07-30T12:07:25.917Z,1.50
2022-07-30T12:10:32.374Z,1.42
2022-07-30T12:13:44.452Z,1.83
2022-07-30T12:16:54.169Z,1.20
2022-07-30T12:19:59.838Z,1.55
2022-07-30T12:23:11.423Z,1.52
2022-07-30T12:26:26.942Z,1.20
2022-07-30T12:29:33.118Z,1.40
2022-07-30T12:32:38.644Z,1.77
2022-07-30T12:35:45.547Z,2.35
2022-07-30T12:38:52.726Z,4.43
2022-07-30T12:41:59.531Z,1.50
2022-07-30T12:45:08.111Z,1.60
2022-07-30T12:48:14.108Z,1.73
2022-07-30T12:51:21.662Z,1.98
2022-07-30T12:54:27.042Z,1.52
2022-07-30T12:58:02.904Z,1.48
2022-07-30T13:01:13.636Z,1.35
2022-07-30T13:04:19.535Z,1.20
2022-07-30T13:07:24.720Z,1.52
2022-07-30T13:10:31.586Z,1.52
2022-07-30T13:13:38.605Z,1.48
2022-07-30T13:16:44.319Z,1.42
2022-07-30T13:19:49.622Z,1.13
2022-07-30T13:23:00.156Z,1.60
2022-07-30T13:26:09.153Z,1.30
2022-07-30T13:29:15.928Z,1.35
2022-07-30T13:32:21.106Z,1.70
2022-07-30T13:35:26.469Z,1.50
2022-07-30T13:38:31.647Z,1.33
2022-07-30T13:41:36.774Z,1.95
2022-07-30T13:44:43.443Z,1.70
2022-07-30T13:47:54.828Z,1.15
2022-07-30T13:51:01.449Z,1.30
2022-07-30T13:54:07.293Z,1.50
2022-07-30T13:57:12.402Z,1.67
2022-07-30T14:00:19.448Z,1.42
2022-07-30T14:03:24.714Z,1.75
2022-07-30T14:06:29.613Z,1.52
2022-07-30T14:09:34.444Z,1.55
2022-07-30T14:12:50.829Z,1.58
2022-07-30T14:15:57.105Z,1.52
2022-07-30T14:19:02.034Z,2.25
2022-07-30T14:22:07.677Z,1.83
2022-07-30T14:25:13.307Z,1.65
2022-07-30T14:28:18.472Z,1.70
2022-07-30T14:31:25.117Z,1.50
2022-07-30T14:34:30.225Z,1.58
2022-07-30T14:37:35.299Z,2.67
2022-07-30T14:40:40.683Z,1.52
2022-07-30T14:43:45.586Z,1.55
2022-07-30T14:46:52.983Z,1.58
2022-07-30T14:49:58.232Z,1.20
2022-07-30T14:53:03.049Z,1.65
2022-07-30T14:56:08.503Z,1.63
2022-07-30T14:59:13.503Z,1.42
2022-07-30T15:02:19.992Z,1.25
2022-07-30T15:05:25.406Z,1.38
2022-07-30T15:08:33.115Z,1.48
2022-07-30T15:12:03.548Z,4.82
2022-07-30T15:15:03.799Z,2.13
2022-07-30T15:18:11.762Z,1.65
2022-07-30T15:21:17.151Z,1.73
2022-07-30T15:24:22.399Z,1.83
2022-07-30T15:27:33.919Z,1.58
2022-07-30T15:30:39.238Z,1.77
2022-07-30T15:33:45.668Z,1.48
2022-07-30T15:36:50.821Z,2.00
2022-07-30T15:39:56.323Z,1.60
2022-07-30T15:43:01.295Z,2.63
2022-07-30T15:46:14.084Z,2.78
2022-07-30T15:49:20.994Z,2.33
2022-07-30T15:52:26.576Z,1.98
2022-07-30T15:55:31.545Z,2.00
2022-07-30T15:58:52.540Z,2.00
2022-07-30T16:01:57.821Z,2.08
2022-07-30T16:05:05.428Z,1.77
2022-07-30T16:08:13.739Z,2.60
2022-07-30T16:11:22.267Z,2.65
2022-07-30T16:14:27.730Z,2.30
2022-07-30T16:17:33.096Z,1.98
2022-07-30T16:20:43.361Z,2.47
2022-07-30T16:23:48.315Z,8.20
2022-07-30T16:26:53.437Z,2.60
2022-07-30T16:29:59.196Z,2.20
2022-07-30T16:33:04.659Z,2.40
2022-07-30T16:36:11.416Z,2.33
2022-07-30T16:39:17.256Z,2.55
2022-07-30T16:42:22.856Z,2.20
2022-07-30T16:45:28.815Z,2.05
2022-07-30T16:48:34.657Z,2.35
2022-07-30T16:51:42.756Z,2.25
2022-07-30T16:54:47.976Z,2.20
2022-07-30T16:57:53.695Z,2.60
2022-07-30T17:00:59.684Z,1.70
2022-07-30T17:04:05.277Z,2.53
2022-07-30T17:07:11.650Z,2.70
2022-07-30T17:10:16.638Z,2.53
2022-07-30T17:13:31.986Z,2.30
2022-07-30T17:16:40.237Z,2.38
2022-07-30T17:19:46.107Z,2.55
2022-07-30T17:22:55.180Z,2.70
2022-07-30T17:26:00.714Z,2.20
2022-07-30T17:29:13.932Z,2.45
2022-07-30T17:32:20.189Z,2.85
2022-07-30T17:35:26.293Z,7.75
2022-07-30T17:38:33.230Z,5.10
2022-07-30T17:41:58.204Z,3.50
2022-07-30T17:45:04.987Z,2.47
2022-07-30T17:48:10.608Z,2.30
2022-07-30T17:51:16.416Z,3.03
2022-07-30T17:54:23.023Z,3.83
2022-07-30T17:57:28.420Z,4.18
2022-07-30T18:00:35.322Z,2.65
2022-07-30T18:03:45.096Z,1.90
2022-07-30T18:06:50.753Z,1.83
2022-07-30T18:09:57.671Z,2.45
2022-07-30T18:13:25.636Z,1.90
2022-07-30T18:16:29.182Z,1.90
2022-07-30T18:19:34.454Z,2.30
2022-07-30T18:22:40.377Z,2.15
2022-07-30T18:25:51.969Z,2.05
2022-07-30T18:28:59.216Z,2.10
2022-07-30T18:32:04.740Z,2.60
2022-07-30T18:35:14.822Z,1.95
2022-07-30T18:38:20.633Z,2.10
2022-07-30T18:41:27.341Z,2.58
2022-07-30T18:44:32.950Z,2.83
2022-07-30T18:47:38.341Z,2.35
2022-07-30T18:50:43.711Z,2.35
2022-07-30T18:53:49.192Z,2.45
2022-07-30T18:56:55.501Z,2.03
2022-07-30T19:00:00.888Z,2.40
2022-07-30T19:03:06.122Z,2.13
2022-07-30T19:06:11.407Z,2.00
2022-07-30T19:09:18.016Z,2.28
2022-07-30T19:12:25.199Z,2.20
2022-07-30T19:15:30.976Z,2.10
2022-07-30T19:18:36.671Z,1.90
2022-07-30T19:21:42.575Z,2.25
2022-07-30T19:24:51.319Z,1.92
2022-07-30T19:27:58.085Z,2.80
2022-07-30T19:31:02.945Z,2.83
2022-07-30T19:34:11.763Z,2.17
2022-07-30T19:37:16.965Z,2.25
2022-07-30T19:40:22.187Z,2.13
2022-07-30T19:43:30.685Z,5.35
2022-07-30T19:46:39.058Z,4.45
2022-07-30T19:49:46.549Z,3.33
2022-07-30T19:52:54.739Z,2.70
2022-07-30T19:56:01.654Z,2.53
2022-07-30T19:59:14.685Z,3.28
2022-07-30T20:02:20.653Z,5.18
2022-07-30T20:05:27.718Z,4.18
2022-07-30T20:08:35.545Z,8.88
2022-07-30T20:11:40.781Z,5.10
2022-07-30T20:14:53.477Z,4.25
2022-07-30T20:17:58.483Z,4.45
2022-07-30T20:21:03.882Z,4.15
2022-07-30T20:24:09.934Z,4.82
2022-07-30T20:27:36.613Z,3.60
2022-07-30T20:30:42.933Z,3.33
2022-07-30T20:33:50.158Z,3.05
2022-07-30T21:15:23.593Z,6.43
2022-07-30T21:18:29.790Z,4.28
2022-07-30T21:21:41.874Z,3.45
2022-07-30T21:24:53.431Z,2.70
2022-07-30T21:27:58.994Z,3.55
2022-07-30T21:31:06.919Z,3.08
2022-07-30T21:34:13.350Z,4.25
2022-07-30T21:37:19.381Z,4.22
2022-07-30T21:40:25.012Z,5.15
2022-07-30T21:43:30.968Z,3.92
2022-07-30T21:46:40.533Z,3.80
2022-07-30T21:49:47.256Z,3.35
2022-07-30T21:52:52.320Z,3.35
2022-07-30T21:55:57.468Z,4.00
2022-07-30T21:59:02.859Z,3.53
2022-07-30T22:02:15.863Z,2.80
2022-07-30T22:08:49.388Z,3.17
2022-07-30T22:11:54.723Z,2.90
2022-07-30T22:15:00.925Z,2.85
2022-07-30T22:18:08.020Z,3.50
2022-07-30T22:21:14.572Z,3.83
2022-07-30T22:24:29.916Z,4.10
2022-07-30T22:27:39.956Z,4.70
2022-07-30T22:31:01.780Z,5.03
2022-07-30T22:34:12.104Z,4.93
2022-07-30T22:37:21.921Z,4.78
2022-07-30T22:40:26.820Z,5.35
2022-07-30T22:43:33.299Z,5.47
2022-07-30T22:46:46.225Z,4.72
2022-07-30T22:50:03.078Z,4.72
2022-07-30T22:53:23.357Z,4.80
2022-07-30T22:56:33.981Z,4.45
2022-07-30T22:59:58.020Z,6.38
2022-07-30T23:03:04.429Z,6.13
2022-07-30T23:06:16.275Z,7.63
2022-07-30T23:09:22.262Z,5.90
2022-07-30T23:12:32.822Z,3.25
2022-07-30T23:12:35.294Z,5.13
2022-07-30T23:15:40.977Z,7.03
2022-07-30T23:18:45.881Z,6.80
2022-07-30T23:21:52.868Z,7.28
2022-07-30T23:24:58.460Z,6.90
2022-07-30T23:28:03.976Z,6.95
2022-07-30T23:31:09.550Z,7.00
2022-07-30T23:34:14.768Z,8.07
2022-07-30T23:37:21.724Z,6.70
2022-07-30T23:40:27.190Z,6.63
2022-07-30T23:43:32.797Z,6.32
2022-07-30T23:46:38.303Z,6.90
2022-07-30T23:49:43.751Z,7.43
2022-07-30T23:52:50.690Z,8.52
2022-07-30T23:55:56.151Z,8.80
2022-07-30T23:59:01.917Z,9.38
